Monday, February 19, 2018, 5:10 AM EST
Back to Local

KPSF, Pittsfield Municipal Airport

Location: Pittsfield, MA, United States Lat: 42.433
Local Time: 5:10 AM EST (10:10 GMT) Lon: -73.283
Time Zone: US/Eastern Elev: 1194 ft

Show me the last for .
Show Decoded

2018-02-19 04:54 METAR KPSF 190954Z AUTO 00000KT 10SM CLR M10/M12 A3044 RMK AO2 SLP328 I1001
                 T11001122 =
2018-02-19 03:54 METAR KPSF 190854Z AUTO 00000KT 10SM CLR M09/M12 A3042 RMK AO2 SLP321 I1000
                 I3001 T10941117 56005 =
2018-02-19 02:54 METAR KPSF 190754Z AUTO 00000KT 10SM CLR M08/M11 A3042 RMK AO2 SLP320 I1001
                 T10831111 =
2018-02-19 01:54 METAR KPSF 190654Z AUTO 00000KT 10SM CLR M08/M11 A3043 RMK AO2 SLP322 I1000
                 T10831111 =
2018-02-19 00:54 METAR KPSF 190554Z AUTO 00000KT 10SM CLR M08/M11 A3044 RMK AO2 SLP324 T10781106
                 10000 21083 58002 =
2018-02-18 23:54 METAR KPSF 190454Z AUTO 00000KT 10SM CLR M07/M11 A3044 RMK AO2 SLP324 T10721106
                 400061083 =
2018-02-18 22:54 METAR KPSF 190354Z AUTO 27006KT 10SM CLR M06/M09 A3045 RMK AO2 SLP328 T10561094
                 =
2018-02-18 21:54 METAR KPSF 190254Z AUTO 00000KT 10SM CLR M03/M09 A3044 RMK AO2 SLP323 T10331089
                 51015 =
2018-02-18 20:54 METAR KPSF 190154Z AUTO 30007KT 10SM CLR M01/M09 A3043 RMK AO2 SLP316 T10061089
                 =
2018-02-18 19:54 METAR KPSF 190054Z AUTO 23003KT 10SM CLR M02/M09 A3041 RMK AO2 SLP314 T10221089
                 =
2018-02-18 18:54 METAR KPSF 182354Z AUTO 26005KT 10SM CLR M02/M08 A3040 RMK AO2 SLP307 T10221083
                 10006 21028 53027 =
2018-02-18 17:54 METAR KPSF 182254Z AUTO 26007KT 10SM BKN035 M01/M08 A3037 RMK AO2 SLP296
                 T10061078 =
2018-02-18 16:54 METAR KPSF 182154Z AUTO 28012G21KT 10SM OVC035 00/M07 A3034 RMK AO2 SLP286
                 T00001067 =
2018-02-18 15:54 METAR KPSF 182054Z AUTO 31009G15KT 10SM OVC037 01/M07 A3032 RMK AO2 SLP277
                 T00061067 51025 =
2018-02-18 15:42 METAR KPSF 182042Z AUTO 29010G18KT 10SM SCT027 OVC037 01/M06 A3030 RMK AO2
                 T00061061 =
2018-02-18 15:21 METAR KPSF 182021Z AUTO 31011KT 10SM BKN027 OVC033 01/M06 A3030 RMK AO2
                 T00061061 =
2018-02-18 14:54 METAR KPSF 181954Z AUTO 31008KT 10SM OVC032 01/M06 A3028 RMK AO2 SLP266
                 T00061061 =
2018-02-18 14:03 METAR KPSF 181903Z AUTO 29015G22KT 10SM OVC031 01/M06 A3028 RMK AO2 T00061061 =
2018-02-18 13:54 METAR KPSF 181854Z AUTO 28011G21KT 10SM OVC029 01/M06 A3027 RMK AO2 SLP263
                 T00061061 =
2018-02-18 12:54 METAR KPSF 181754Z AUTO 30011G19KT 10SM BKN024 OVC030 01/M06 A3024 RMK AO2
                 SLP251 T00061056 10006 21022 53008 =
2018-02-18 11:54 METAR KPSF 181654Z AUTO 32009G18KT 300V360 10SM OVC028 01/M07 A3020 RMK AO2
                 SLP238 T00061067 =
2018-02-18 11:27 METAR KPSF 181627Z AUTO 33010G21KT 260V010 10SM SCT028 BKN033 00/M07 A3017 RMK
                 AO2 T00001067 =
2018-02-18 10:54 METAR KPSF 181554Z AUTO 33012G20KT 10SM BKN025 OVC031 M01/M06 A3018 RMK AO2
                 SLP233 T10061061 =
2018-02-18 10:09 METAR KPSF 181509Z AUTO 32008G22KT 10SM BKN023 BKN030 OVC036 M01/M06 A3020 RMK
                 AO2 T10061061 =
2018-02-18 09:54 METAR KPSF 181454Z AUTO 30015G27KT 10SM SCT023 OVC034 M01/M06 A3021 RMK AO2 PK
                 WND 30034/1409 SLP243 T10061061 53060 =
2018-02-18 08:54 METAR KPSF 181354Z AUTO 29020G31KT 5SM HZ SCT019 M01/M06 A3013 RMK AO2 PK WND
                 28033/1309 SLP215 T10111061 =
2018-02-18 08:28 METAR KPSF 181328Z AUTO 30017G26KT 8SM FEW020 BKN028 M02/M06 A3012 RMK AO2 PK
                 WND 28033/1309 T10171061 =
2018-02-18 07:54 METAR KPSF 181254Z AUTO 30019G29KT 5SM HZ FEW016 BKN036 M02/M06 A3008 RMK AO2 PK
                 WND 30032/1156 SLP200 T10221061 =
2018-02-18 07:42 METAR KPSF 181242Z AUTO 29021G28KT 5SM HZ SCT016 OVC036 M02/M06 A3007 RMK AO2 PK
                 WND 30032/1156 T10221056 =
2018-02-18 06:54 METAR KPSF 181154Z AUTO 28018G24KT 9SM OVC013 M02/M04 A3003 RMK AO2 PK WND
                 30031/1136 PRESRR SLP180 60009 70032 T10171044 11011 21022 53044 =
2018-02-18 06:46 METAR KPSF 181146Z AUTO 30015KT 10SM OVC013 M02/M04 A3002 RMK AO2 PK WND
                 30031/1136 T10171044 =
2018-02-18 06:31 METAR KPSF 181131Z AUTO 30017G26KT 9SM BKN015 OVC020 M02/M04 A3000 RMK AO2 PK
                 WND 29031/1057 T10171044 =
2018-02-18 05:54 METAR KPSF 181054Z AUTO 29020G32KT 7SM BKN011 OVC017 M01/M04 A2998 RMK AO2 PK
                 WND 30032/1046 SNE44 SLP162 P0000 T10111044 =
2018-02-18 05:34 METAR KPSF 181034Z AUTO 30019G25KT 3SM -SN BKN011 OVC017 M01/M04 A2997 RMK AO2
                 P0000 T10111039 =

Support USWX by starting your Amazon purchase here.